Time;durP1;ratioP1;P1;durP2;ratioP2;P2;SDS_P1;SDS_P2;PMS_P1;PMS_P2;Temp;Humidity;BMP_temperature;BMP_pressure;BME280_temperature;BME280_humidity;BME280_pressure;Samples;Min_cycle;Max_cycle;Signal;HPM_P1;HPM_P2
2022/07/07 00:01:51;;;;;;;;;;;18.50;99.90;;;;;;8370413;28;20294;-78
2022/07/07 00:05:53;;;;;;;;;;;18.50;99.90;;;;;;8381047;28;19943;-78
2022/07/07 00:09:55;;;;;;;;;;;18.50;99.90;;;;;;8377033;28;19920;-78
2022/07/07 00:13:56;;;;;;;;;;;18.50;99.90;;;;;;8385396;28;21627;-78
2022/07/07 00:17:58;;;;;;;;;;;18.50;99.90;;;;;;8380914;28;20343;-78
2022/07/07 00:22:00;;;;;;;;;;;18.60;99.90;;;;;;8382478;28;20446;-78
2022/07/07 00:26:02;;;;;;;;;;;18.60;99.90;;;;;;8381941;28;19928;-77
2022/07/07 00:30:05;;;;;;;;;;;18.60;99.90;;;;;;8377948;28;19958;-77
2022/07/07 00:34:06;;;;;;;;;;;18.60;99.90;;;;;;8390820;28;20428;-77
2022/07/07 00:38:09;;;;;;;;;;;18.70;99.90;;;;;;8367997;28;20479;-78
2022/07/07 00:42:14;;;;;;;;;;;18.70;99.90;;;;;;8380791;28;19939;-77
2022/07/07 00:46:16;;;;;;;;;;;18.70;99.90;;;;;;8375187;28;19920;-77
2022/07/07 00:50:18;;;;;;;;;;;18.80;99.90;;;;;;8360832;28;19925;-77
2022/07/07 00:54:20;;;;;;;;;;;18.80;99.90;;;;;;8369465;28;19927;-78
2022/07/07 00:58:21;;;;;;;;;;;18.80;99.90;;;;;;8367001;28;20031;-77
2022/07/07 01:02:23;;;;;;;;;;;18.80;99.90;;;;;;8364468;28;19924;-78
2022/07/07 01:06:25;;;;;;;;;;;18.80;99.90;;;;;;8389872;28;21599;-77
2022/07/07 01:10:27;;;;;;;;;;;18.90;99.90;;;;;;8359592;28;20404;-77
2022/07/07 01:14:29;;;;;;;;;;;18.90;99.90;;;;;;8375282;28;20271;-77
2022/07/07 01:18:31;;;;;;;;;;;18.90;99.90;;;;;;8384067;28;19925;-77
2022/07/07 01:22:34;;;;;;;;;;;18.90;99.90;;;;;;8393793;28;19932;-77
2022/07/07 01:26:37;;;;;;;;;;;18.90;99.90;;;;;;8393312;28;19927;-76
2022/07/07 01:30:38;;;;;;;;;;;18.90;99.90;;;;;;8390405;28;19928;-77
2022/07/07 01:34:42;;;;;;;;;;;18.90;99.90;;;;;;8375260;28;19924;-76
2022/07/07 01:38:43;;;;;;;;;;;18.90;99.90;;;;;;8377986;28;19929;-76
2022/07/07 01:42:45;;;;;;;;;;;18.90;99.90;;;;;;8379456;28;19924;-76
2022/07/07 01:46:47;;;;;;;;;;;18.90;99.90;;;;;;8373967;28;19924;-77
2022/07/07 01:50:49;;;;;;;;;;;18.90;99.90;;;;;;8387240;28;20413;-77
2022/07/07 01:54:50;;;;;;;;;;;18.90;99.90;;;;;;8363653;28;19928;-75
2022/07/07 01:58:52;;;;;;;;;;;18.80;99.90;;;;;;8366476;28;20353;-76
2022/07/07 02:02:54;;;;;;;;;;;18.60;99.90;;;;;;8377255;28;19924;-77
2022/07/07 02:06:55;;;;;;;;;;;18.40;99.90;;;;;;8391538;28;20004;-77
2022/07/07 02:11:12;;;;;;;;;;;18.20;99.90;;;;;;8387563;28;19927;-77
2022/07/07 02:15:14;;;;;;;;;;;18.10;99.90;;;;;;8390143;28;19924;-78
2022/07/07 02:19:15;;;;;;;;;;;18.00;99.90;;;;;;8378673;28;19928;-78
2022/07/07 02:23:17;;;;;;;;;;;18.00;99.90;;;;;;8378131;28;19928;-77
2022/07/07 02:27:19;;;;;;;;;;;17.90;99.90;;;;;;8367012;28;19931;-78
2022/07/07 02:31:20;;;;;;;;;;;17.90;99.90;;;;;;8385884;28;19927;-77
2022/07/07 02:35:22;;;;;;;;;;;17.90;99.90;;;;;;8382660;28;19928;-77
2022/07/07 02:39:24;;;;;;;;;;;17.80;99.90;;;;;;8373251;28;19965;-77
2022/07/07 02:43:26;;;;;;;;;;;17.80;99.90;;;;;;8376127;28;19928;-78
2022/07/07 02:47:28;;;;;;;;;;;17.80;99.90;;;;;;8365871;28;19943;-77
2022/07/07 02:51:30;;;;;;;;;;;17.80;99.90;;;;;;8353442;28;20622;-76
2022/07/07 02:55:32;;;;;;;;;;;17.80;99.90;;;;;;8355865;28;20401;-76
2022/07/07 02:59:34;;;;;;;;;;;17.70;99.90;;;;;;8372288;28;19947;-77
2022/07/07 03:03:36;;;;;;;;;;;17.70;99.90;;;;;;8375251;28;19928;-77
2022/07/07 03:07:38;;;;;;;;;;;17.60;99.90;;;;;;8390227;28;20383;-77
2022/07/07 03:11:39;;;;;;;;;;;17.60;99.90;;;;;;8363990;28;19921;-77
2022/07/07 03:15:41;;;;;;;;;;;17.50;99.90;;;;;;8371633;28;20264;-76
2022/07/07 03:19:43;;;;;;;;;;;17.50;99.90;;;;;;8378494;28;20340;-77
2022/07/07 03:23:44;;;;;;;;;;;17.40;99.90;;;;;;8389584;28;19996;-76
2022/07/07 03:27:46;;;;;;;;;;;17.40;99.90;;;;;;8382570;28;19920;-77
2022/07/07 03:31:48;;;;;;;;;;;17.40;99.90;;;;;;8398760;28;20389;-76
2022/07/07 03:35:50;;;;;;;;;;;17.40;99.90;;;;;;8391201;28;19928;-77
2022/07/07 03:39:51;;;;;;;;;;;17.40;99.90;;;;;;8372792;28;19966;-77
2022/07/07 03:43:53;;;;;;;;;;;17.40;99.90;;;;;;8386511;28;20343;-76
2022/07/07 03:47:55;;;;;;;;;;;17.40;99.90;;;;;;8391894;28;20337;-76
2022/07/07 03:51:57;;;;;;;;;;;17.40;99.90;;;;;;8370617;28;19932;-76
2022/07/07 03:55:58;;;;;;;;;;;17.40;99.90;;;;;;8393002;28;20309;-77
2022/07/07 04:00:00;;;;;;;;;;;17.40;99.90;;;;;;8362470;28;19928;-77
2022/07/07 04:04:04;;;;;;;;;;;17.30;99.90;;;;;;8387891;28;20232;-77
2022/07/07 04:08:08;;;;;;;;;;;17.30;99.90;;;;;;8389937;28;20040;-77
2022/07/07 04:12:10;;;;;;;;;;;17.30;99.90;;;;;;8378429;28;19924;-77
2022/07/07 04:16:12;;;;;;;;;;;17.30;99.90;;;;;;8390734;28;19920;-74
2022/07/07 04:20:13;;;;;;;;;;;17.30;99.90;;;;;;8374504;28;19920;-77
2022/07/07 04:24:15;;;;;;;;;;;17.20;99.90;;;;;;8373573;28;19969;-76
2022/07/07 04:28:17;;;;;;;;;;;17.20;99.90;;;;;;8392444;28;20327;-77
2022/07/07 04:32:19;;;;;;;;;;;17.20;99.90;;;;;;8381505;28;19970;-77
2022/07/07 04:36:20;;;;;;;;;;;17.20;99.90;;;;;;8368178;28;19920;-77
2022/07/07 04:40:22;;;;;;;;;;;17.20;99.90;;;;;;8370821;28;19981;-76
2022/07/07 04:44:24;;;;;;;;;;;17.20;99.90;;;;;;8368697;28;20376;-76
2022/07/07 04:48:26;;;;;;;;;;;17.20;99.90;;;;;;8379606;28;19924;-78
2022/07/07 04:52:27;;;;;;;;;;;17.20;99.90;;;;;;8379036;28;20322;-76
2022/07/07 04:56:29;;;;;;;;;;;17.20;99.90;;;;;;8398919;28;20436;-76
2022/07/07 05:00:31;;;;;;;;;;;17.20;99.90;;;;;;8388215;28;19920;-75
2022/07/07 05:04:32;;;;;;;;;;;17.20;99.90;;;;;;8391353;28;19924;-76
2022/07/07 05:08:34;;;;;;;;;;;17.20;99.90;;;;;;8391113;28;19932;-76
2022/07/07 05:12:36;;;;;;;;;;;17.10;99.90;;;;;;8390988;28;21467;-75
2022/07/07 05:16:37;;;;;;;;;;;17.10;99.90;;;;;;8378130;28;21458;-76
2022/07/07 05:20:39;;;;;;;;;;;17.10;99.90;;;;;;8382206;28;19921;-76
2022/07/07 05:24:41;;;;;;;;;;;17.20;99.90;;;;;;8386292;28;19924;-77
2022/07/07 05:28:42;;;;;;;;;;;17.20;99.90;;;;;;8388232;28;19920;-77
2022/07/07 05:32:44;;;;;;;;;;;17.20;99.90;;;;;;8391716;28;19970;-76
2022/07/07 05:36:46;;;;;;;;;;;17.20;99.90;;;;;;8377670;28;19924;-77
2022/07/07 05:40:47;;;;;;;;;;;17.20;99.90;;;;;;8383557;28;19934;-77
2022/07/07 05:44:49;;;;;;;;;;;17.20;99.90;;;;;;8393653;28;19935;-76
2022/07/07 05:48:51;;;;;;;;;;;17.20;99.90;;;;;;8371932;28;20809;-77
2022/07/07 05:52:52;;;;;;;;;;;17.20;99.90;;;;;;8372743;28;19931;-76
2022/07/07 05:56:54;;;;;;;;;;;17.20;99.90;;;;;;8386245;28;19920;-77
2022/07/07 06:00:56;;;;;;;;;;;17.20;99.90;;;;;;8359433;28;19924;-76
2022/07/07 06:04:57;;;;;;;;;;;17.20;99.90;;;;;;8363574;28;19924;-75
2022/07/07 06:09:01;;;;;;;;;;;17.20;99.90;;;;;;8360405;28;20214;-75
2022/07/07 06:13:02;;;;;;;;;;;17.10;99.90;;;;;;8367018;28;19940;-76
2022/07/07 06:17:04;;;;;;;;;;;17.10;99.90;;;;;;8371190;28;20429;-75
2022/07/07 06:21:06;;;;;;;;;;;17.10;99.90;;;;;;8361236;28;19940;-75
2022/07/07 06:25:08;;;;;;;;;;;17.10;99.90;;;;;;8362182;28;19928;-75
2022/07/07 06:29:10;;;;;;;;;;;17.10;99.90;;;;;;8363141;28;19941;-76
2022/07/07 06:33:12;;;;;;;;;;;17.20;99.90;;;;;;8361632;28;19925;-75
2022/07/07 06:37:13;;;;;;;;;;;17.30;99.90;;;;;;8355110;28;19936;-75
2022/07/07 06:41:16;;;;;;;;;;;17.30;99.90;;;;;;8360291;28;19933;-76
2022/07/07 06:45:18;;;;;;;;;;;17.30;99.90;;;;;;8355679;28;19971;-75
2022/07/07 06:49:19;;;;;;;;;;;17.40;99.90;;;;;;8359494;28;19925;-75
2022/07/07 06:53:21;;;;;;;;;;;17.20;99.90;;;;;;8356621;28;20265;-76
2022/07/07 06:57:22;;;;;;;;;;;17.10;99.90;;;;;;8345958;28;19925;-75
2022/07/07 07:01:24;;;;;;;;;;;17.10;99.90;;;;;;8361012;28;20347;-76
2022/07/07 07:05:26;;;;;;;;;;;17.10;99.90;;;;;;8370291;28;19928;-76
2022/07/07 07:09:28;;;;;;;;;;;17.10;99.90;;;;;;8362622;28;19935;-76
2022/07/07 07:13:30;;;;;;;;;;;17.30;99.90;;;;;;8368366;28;19932;-76
2022/07/07 07:17:32;;;;;;;;;;;17.40;99.90;;;;;;8367776;28;19947;-75
2022/07/07 07:21:33;;;;;;;;;;;17.40;99.90;;;;;;8364173;28;19925;-74
2022/07/07 07:25:35;;;;;;;;;;;17.40;99.90;;;;;;8362990;28;19947;-74
2022/07/07 07:29:37;;;;;;;;;;;17.40;99.90;;;;;;8372293;28;19932;-75
2022/07/07 07:33:38;;;;;;;;;;;17.50;99.90;;;;;;8373690;28;20393;-76
2022/07/07 07:37:40;;;;;;;;;;;17.60;99.90;;;;;;8355708;28;19936;-76
2022/07/07 07:41:43;;;;;;;;;;;17.60;99.90;;;;;;8367910;28;20268;-74
2022/07/07 07:45:45;;;;;;;;;;;17.70;99.90;;;;;;8364011;28;20371;-75
2022/07/07 07:49:47;;;;;;;;;;;17.80;99.90;;;;;;8358207;28;19940;-75
2022/07/07 07:53:48;;;;;;;;;;;17.80;99.90;;;;;;8358179;28;20446;-75
2022/07/07 07:57:51;;;;;;;;;;;17.90;99.90;;;;;;8365451;28;19947;-75
2022/07/07 08:01:52;;;;;;;;;;;18.00;99.90;;;;;;8380359;28;19935;-76
2022/07/07 08:05:54;;;;;;;;;;;18.00;99.90;;;;;;8356321;28;19978;-76
2022/07/07 08:09:56;;;;;;;;;;;18.00;99.90;;;;;;8363843;28;19932;-75
2022/07/07 08:13:58;;;;;;;;;;;17.80;99.90;;;;;;8358570;28;20369;-75
2022/07/07 08:17:59;;;;;;;;;;;17.80;99.90;;;;;;8362259;28;19928;-74
2022/07/07 08:22:01;;;;;;;;;;;17.70;99.90;;;;;;8372042;28;19983;-75
2022/07/07 08:26:03;;;;;;;;;;;17.70;99.90;;;;;;8375707;28;19924;-74
2022/07/07 08:30:06;;;;;;;;;;;17.60;99.90;;;;;;8376715;28;19974;-75
2022/07/07 08:34:08;;;;;;;;;;;17.60;99.90;;;;;;8376506;28;19925;-76
2022/07/07 08:38:09;;;;;;;;;;;17.60;99.90;;;;;;8371784;28;19936;-74
2022/07/07 08:42:12;;;;;;;;;;;17.70;99.90;;;;;;8363049;28;20292;-76
2022/07/07 08:46:13;;;;;;;;;;;17.70;99.90;;;;;;8364358;28;19932;-76
2022/07/07 08:50:15;;;;;;;;;;;17.80;99.90;;;;;;8363860;28;19946;-74
2022/07/07 08:54:17;;;;;;;;;;;17.90;99.90;;;;;;8362613;28;19936;-74
2022/07/07 08:58:19;;;;;;;;;;;17.90;99.90;;;;;;8361905;28;19944;-75
2022/07/07 09:02:40;;;;;;;;;;;18.00;99.90;;;;;;8362651;28;19971;-75
2022/07/07 09:06:51;;;;;;;;;;;18.10;99.90;;;;;;8379602;28;20384;-75
2022/07/07 09:10:53;;;;;;;;;;;18.10;99.90;;;;;;8366366;28;20287;-73
2022/07/07 09:14:55;;;;;;;;;;;18.00;99.90;;;;;;8361595;28;19925;-75
2022/07/07 09:18:56;;;;;;;;;;;18.00;99.90;;;;;;8360450;28;20450;-75
2022/07/07 09:22:58;;;;;;;;;;;18.10;99.90;;;;;;8370500;28;20334;-76
2022/07/07 09:27:06;;;;;;;;;;;18.20;99.90;;;;;;8374261;28;19933;-74
2022/07/07 09:31:08;;;;;;;;;;;18.30;99.90;;;;;;8375302;28;19935;-74
2022/07/07 09:38:13;;;;;;;;;;;18.50;99.90;;;;;;8372385;28;19951;-75
2022/07/07 09:39:46;;;;;;;;;;;18.50;99.90;;;;;;8376178;28;19929;-78
2022/07/07 09:44:07;;;;;;;;;;;18.40;99.90;;;;;;8374576;28;19964;-75
2022/07/07 09:48:09;;;;;;;;;;;18.40;99.90;;;;;;8375186;28;19932;-75
2022/07/07 09:52:14;;;;;;;;;;;18.40;99.90;;;;;;8370436;28;19936;-74
2022/07/07 09:56:16;;;;;;;;;;;18.50;99.90;;;;;;8372478;28;19929;-74
2022/07/07 10:00:18;;;;;;;;;;;18.60;99.90;;;;;;8373023;28;20312;-74
2022/07/07 10:04:21;;;;;;;;;;;18.70;99.90;;;;;;8367311;28;19929;-75
2022/07/07 10:08:23;;;;;;;;;;;18.80;99.90;;;;;;8358641;28;19939;-74
2022/07/07 10:12:25;;;;;;;;;;;18.80;99.90;;;;;;8365894;28;20287;-74
2022/07/07 10:16:28;;;;;;;;;;;18.70;99.90;;;;;;8375638;28;19929;-74
2022/07/07 10:20:29;;;;;;;;;;;18.80;99.90;;;;;;8362444;28;19932;-74
2022/07/07 10:24:32;;;;;;;;;;;18.80;99.90;;;;;;8358465;28;19929;-75
2022/07/07 10:28:52;;;;;;;;;;;18.90;99.90;;;;;;8368074;28;20364;-76
2022/07/07 10:32:55;;;;;;;;;;;18.90;99.90;;;;;;8370503;28;19928;-75
2022/07/07 10:36:57;;;;;;;;;;;18.70;99.90;;;;;;8371015;28;19928;-75
2022/07/07 10:40:59;;;;;;;;;;;18.50;99.90;;;;;;8367041;28;19925;-75
2022/07/07 10:45:01;;;;;;;;;;;18.40;99.90;;;;;;8385913;28;19924;-75
2022/07/07 10:49:10;;;;;;;;;;;18.40;99.90;;;;;;8371596;28;19928;-75
2022/07/07 10:53:28;;;;;;;;;;;18.30;99.90;;;;;;8371175;28;19936;-75
2022/07/07 10:57:39;;;;;;;;;;;18.30;99.90;;;;;;8372544;28;19932;-74
2022/07/07 11:02:00;;;;;;;;;;;18.30;99.90;;;;;;8369081;28;19931;-76
2022/07/07 11:06:03;;;;;;;;;;;18.40;99.90;;;;;;8365811;28;19925;-75
2022/07/07 11:10:06;;;;;;;;;;;18.50;99.90;;;;;;8361459;28;19943;-75
2022/07/07 11:14:09;;;;;;;;;;;18.70;99.90;;;;;;8362041;28;19932;-76
2022/07/07 11:18:14;;;;;;;;;;;18.80;99.90;;;;;;8369777;28;20336;-75
2022/07/07 11:22:17;;;;;;;;;;;18.80;99.90;;;;;;8370351;28;19925;-74
2022/07/07 11:26:20;;;;;;;;;;;18.80;99.90;;;;;;8370132;28;20307;-76
2022/07/07 11:30:24;;;;;;;;;;;18.80;99.90;;;;;;8371606;28;19948;-75
2022/07/07 11:34:25;;;;;;;;;;;18.70;99.90;;;;;;8351838;28;19937;-75
2022/07/07 11:38:28;;;;;;;;;;;18.70;99.90;;;;;;8366483;28;19933;-75
2022/07/07 11:42:36;;;;;;;;;;;18.70;99.90;;;;;;8361526;28;20586;-76
2022/07/07 11:46:38;;;;;;;;;;;18.80;99.90;;;;;;8370019;28;20061;-74
2022/07/07 11:50:40;;;;;;;;;;;18.90;99.90;;;;;;8374843;28;19971;-75
2022/07/07 11:54:43;;;;;;;;;;;19.00;99.90;;;;;;8368525;28;19924;-76
2022/07/07 11:58:55;;;;;;;;;;;19.00;99.90;;;;;;8359354;28;19925;-76
2022/07/07 12:02:57;;;;;;;;;;;18.90;99.90;;;;;;8365529;28;19925;-74
2022/07/07 12:06:59;;;;;;;;;;;18.80;99.90;;;;;;8363774;28;19932;-76
2022/07/07 12:11:01;;;;;;;;;;;18.70;99.90;;;;;;8360242;28;19932;-74
2022/07/07 12:15:07;;;;;;;;;;;18.70;99.90;;;;;;8367996;28;19935;-75
2022/07/07 12:19:09;;;;;;;;;;;18.90;99.90;;;;;;8369623;28;20272;-76
2022/07/07 12:23:16;;;;;;;;;;;19.00;99.90;;;;;;8366932;28;19933;-74
2022/07/07 12:27:18;;;;;;;;;;;19.10;99.90;;;;;;8364900;28;19937;-75
2022/07/07 12:31:20;;;;;;;;;;;19.20;99.90;;;;;;8365250;28;19924;-75
2022/07/07 12:35:25;;;;;;;;;;;19.20;99.90;;;;;;8367701;28;19928;-75
2022/07/07 12:39:26;;;;;;;;;;;19.20;99.90;;;;;;8366204;28;19932;-76
2022/07/07 12:43:33;;;;;;;;;;;19.10;99.90;;;;;;8363101;28;19928;-77
2022/07/07 12:47:42;;;;;;;;;;;19.00;99.90;;;;;;8364822;28;19943;-76
2022/07/07 12:51:49;;;;;;;;;;;19.10;99.90;;;;;;8366469;28;19974;-74
2022/07/07 12:55:50;;;;;;;;;;;19.10;99.90;;;;;;8364688;28;20376;-74
2022/07/07 12:59:52;;;;;;;;;;;19.20;99.90;;;;;;8365218;28;19932;-76
2022/07/07 13:03:54;;;;;;;;;;;19.20;99.90;;;;;;8361193;28;20450;-75
2022/07/07 13:07:56;;;;;;;;;;;19.20;99.90;;;;;;8383084;28;19928;-75
2022/07/07 13:11:58;;;;;;;;;;;19.20;99.90;;;;;;8376994;28;19932;-75
2022/07/07 13:15:59;;;;;;;;;;;19.30;99.90;;;;;;8351287;28;20035;-75
2022/07/07 13:20:01;;;;;;;;;;;19.30;99.90;;;;;;8366155;28;19932;-78
2022/07/07 13:24:03;;;;;;;;;;;19.30;99.90;;;;;;8394927;28;19932;-78
2022/07/07 13:28:05;;;;;;;;;;;19.20;99.90;;;;;;8371318;28;19928;-77
2022/07/07 13:32:07;;;;;;;;;;;19.20;99.90;;;;;;8385932;28;20375;-77
2022/07/07 13:36:08;;;;;;;;;;;19.10;99.90;;;;;;8389720;28;20401;-77
2022/07/07 13:40:10;;;;;;;;;;;19.10;99.90;;;;;;8376595;28;19925;-78
2022/07/07 13:44:12;;;;;;;;;;;19.10;99.90;;;;;;8371430;28;20709;-77
2022/07/07 13:48:14;;;;;;;;;;;19.10;99.90;;;;;;8378395;28;19940;-78
2022/07/07 13:52:15;;;;;;;;;;;19.20;99.90;;;;;;8366294;28;19925;-78
2022/07/07 13:56:17;;;;;;;;;;;19.20;99.90;;;;;;8370976;28;19925;-77
2022/07/07 14:00:23;;;;;;;;;;;19.10;99.90;;;;;;8362433;28;19932;-77
2022/07/07 14:04:24;;;;;;;;;;;19.20;99.90;;;;;;8358139;28;19925;-77
2022/07/07 14:08:26;;;;;;;;;;;19.30;99.90;;;;;;8339495;28;19979;-77
2022/07/07 14:12:28;;;;;;;;;;;19.40;99.90;;;;;;8363454;28;19932;-77
2022/07/07 14:16:29;;;;;;;;;;;19.50;99.90;;;;;;8360081;28;20302;-77
2022/07/07 14:20:31;;;;;;;;;;;19.50;99.90;;;;;;8359801;28;20011;-77
2022/07/07 14:24:33;;;;;;;;;;;19.40;99.90;;;;;;8375755;28;19932;-77
2022/07/07 14:28:34;;;;;;;;;;;19.40;99.90;;;;;;8362194;28;19928;-78
2022/07/07 14:32:37;;;;;;;;;;;19.40;99.90;;;;;;8359457;28;19925;-77
2022/07/07 14:36:38;;;;;;;;;;;19.30;99.90;;;;;;8367105;28;19925;-78
2022/07/07 14:40:40;;;;;;;;;;;19.30;99.90;;;;;;8374179;28;19925;-77
2022/07/07 14:44:44;;;;;;;;;;;19.40;99.90;;;;;;8355807;28;19951;-77
2022/07/07 14:48:46;;;;;;;;;;;19.40;99.90;;;;;;8352882;28;19932;-77
2022/07/07 14:52:48;;;;;;;;;;;19.40;99.90;;;;;;8355442;28;19925;-76
2022/07/07 14:56:49;;;;;;;;;;;19.30;99.90;;;;;;8362480;28;19952;-77
2022/07/07 15:00:51;;;;;;;;;;;19.30;99.90;;;;;;8361209;28;19925;-77
2022/07/07 15:04:53;;;;;;;;;;;19.40;99.90;;;;;;8381301;28;19973;-77
2022/07/07 15:08:55;;;;;;;;;;;19.60;99.90;;;;;;8372669;28;19940;-77
2022/07/07 15:12:56;;;;;;;;;;;19.60;99.90;;;;;;8360526;28;19932;-77
2022/07/07 15:16:58;;;;;;;;;;;19.50;99.90;;;;;;8349034;28;20311;-77
2022/07/07 15:21:01;;;;;;;;;;;19.40;99.90;;;;;;8379000;28;19939;-77
2022/07/07 15:25:03;;;;;;;;;;;19.40;99.90;;;;;;8362238;28;19997;-77
2022/07/07 15:29:05;;;;;;;;;;;19.30;99.90;;;;;;8360260;28;19931;-77
2022/07/07 15:33:07;;;;;;;;;;;19.40;99.90;;;;;;8354727;28;19924;-77
2022/07/07 15:37:08;;;;;;;;;;;19.70;99.90;;;;;;8369629;28;20378;-77
2022/07/07 15:41:15;;;;;;;;;;;19.90;99.90;;;;;;8377200;28;19933;-77
2022/07/07 15:45:18;;;;;;;;;;;20.00;99.90;;;;;;8369537;28;20299;-77
2022/07/07 15:49:19;;;;;;;;;;;20.00;99.90;;;;;;8361305;28;19932;-77
2022/07/07 15:53:21;;;;;;;;;;;20.10;99.90;;;;;;8360811;28;19925;-77
2022/07/07 15:57:23;;;;;;;;;;;20.10;99.90;;;;;;8361056;28;19939;-78
2022/07/07 16:01:24;;;;;;;;;;;20.10;99.90;;;;;;8367673;28;19935;-78
2022/07/07 16:05:26;;;;;;;;;;;20.00;99.90;;;;;;8373742;28;19933;-77
2022/07/07 16:09:28;;;;;;;;;;;19.90;99.90;;;;;;8366113;28;20314;-77
2022/07/07 16:13:29;;;;;;;;;;;19.80;99.90;;;;;;8363122;28;19932;-77
2022/07/07 16:17:31;;;;;;;;;;;19.60;99.90;;;;;;8374966;28;19929;-77
2022/07/07 16:21:39;;;;;;;;;;;19.50;99.90;;;;;;8373425;28;21069;-77
2022/07/07 16:25:41;;;;;;;;;;;19.40;99.90;;;;;;8365331;28;19933;-77
2022/07/07 16:29:43;;;;;;;;;;;19.30;99.90;;;;;;8365451;28;19940;-77
2022/07/07 16:33:44;;;;;;;;;;;19.40;99.90;;;;;;8359529;28;19929;-78
2022/07/07 16:37:46;;;;;;;;;;;19.40;99.90;;;;;;8360496;28;19925;-77
2022/07/07 16:41:48;;;;;;;;;;;19.30;99.90;;;;;;8363923;28;19924;-77
2022/07/07 16:45:49;;;;;;;;;;;19.40;99.90;;;;;;8369997;28;19924;-77
2022/07/07 16:49:51;;;;;;;;;;;19.40;99.90;;;;;;8357038;28;20372;-77
2022/07/07 16:53:55;;;;;;;;;;;19.40;99.90;;;;;;8361434;28;19929;-77
2022/07/07 16:58:02;;;;;;;;;;;19.40;99.90;;;;;;8356691;28;19924;-77
2022/07/07 17:02:04;;;;;;;;;;;19.60;99.90;;;;;;8359031;28;19935;-77
2022/07/07 17:06:06;;;;;;;;;;;19.60;99.90;;;;;;8361253;28;19925;-76
2022/07/07 17:10:08;;;;;;;;;;;19.70;99.90;;;;;;8360049;28;20303;-77
2022/07/07 17:14:10;;;;;;;;;;;19.60;99.90;;;;;;8362962;28;19941;-77
2022/07/07 17:18:11;;;;;;;;;;;19.50;99.90;;;;;;8362580;28;19924;-77
2022/07/07 17:22:13;;;;;;;;;;;19.60;99.90;;;;;;8352869;28;20011;-77
2022/07/07 17:26:15;;;;;;;;;;;19.60;99.90;;;;;;8377046;28;19929;-78
2022/07/07 17:30:16;;;;;;;;;;;19.50;99.90;;;;;;8373128;28;20541;-77
2022/07/07 17:34:18;;;;;;;;;;;19.40;99.90;;;;;;8382297;28;19935;-77
2022/07/07 17:38:20;;;;;;;;;;;19.30;99.90;;;;;;8372765;28;20345;-77
2022/07/07 17:42:21;;;;;;;;;;;19.20;99.90;;;;;;8369764;28;20330;-77
2022/07/07 17:46:23;;;;;;;;;;;19.10;99.90;;;;;;8373456;28;19947;-77
2022/07/07 17:50:25;;;;;;;;;;;19.10;99.90;;;;;;8391436;28;19924;-77
2022/07/07 17:54:26;;;;;;;;;;;19.10;99.90;;;;;;8387174;28;20402;-77
2022/07/07 17:58:28;;;;;;;;;;;19.00;99.90;;;;;;8368991;28;20328;-78
2022/07/07 18:02:30;;;;;;;;;;;18.90;99.90;;;;;;8373760;28;19932;-77
2022/07/07 18:06:32;;;;;;;;;;;18.80;99.90;;;;;;8370831;28;19931;-77
2022/07/07 18:10:33;;;;;;;;;;;18.80;99.90;;;;;;8370717;28;19950;-77
2022/07/07 18:14:35;;;;;;;;;;;18.80;99.90;;;;;;8372184;28;19931;-77
2022/07/07 18:18:36;;;;;;;;;;;18.80;99.90;;;;;;8373128;28;19947;-77
2022/07/07 18:22:38;;;;;;;;;;;18.70;99.90;;;;;;8370754;28;19931;-77
2022/07/07 18:26:40;;;;;;;;;;;18.80;99.90;;;;;;8372695;28;20155;-77
2022/07/07 18:30:41;;;;;;;;;;;18.70;99.90;;;;;;8366973;28;19928;-77
2022/07/07 18:34:43;;;;;;;;;;;18.50;99.90;;;;;;8368359;28;19931;-77
2022/07/07 18:38:45;;;;;;;;;;;18.50;99.90;;;;;;8371791;28;19940;-77
2022/07/07 18:42:49;;;;;;;;;;;18.40;99.90;;;;;;8374327;28;19986;-77
2022/07/07 18:46:50;;;;;;;;;;;18.30;99.90;;;;;;8371730;28;19933;-77
2022/07/07 18:50:52;;;;;;;;;;;18.30;99.90;;;;;;8375158;28;19939;-77
2022/07/07 18:54:53;;;;;;;;;;;18.30;99.90;;;;;;8370549;28;19925;-77
2022/07/07 18:58:55;;;;;;;;;;;18.30;99.90;;;;;;8369323;28;19931;-77
2022/07/07 19:02:57;;;;;;;;;;;18.30;99.90;;;;;;8365393;28;19931;-77
2022/07/07 19:06:58;;;;;;;;;;;18.30;99.90;;;;;;8371828;28;19924;-77
2022/07/07 19:11:00;;;;;;;;;;;18.10;99.90;;;;;;8372238;28;19936;-77
2022/07/07 19:15:02;;;;;;;;;;;18.00;99.90;;;;;;8370936;28;19947;-77
2022/07/07 19:19:04;;;;;;;;;;;17.90;99.90;;;;;;8369522;28;20390;-76
2022/07/07 19:23:06;;;;;;;;;;;17.90;99.90;;;;;;8369867;28;19928;-77
2022/07/07 19:27:08;;;;;;;;;;;17.80;99.90;;;;;;8374838;28;19947;-77
2022/07/07 19:31:09;;;;;;;;;;;17.80;99.90;;;;;;8371299;28;19929;-77
2022/07/07 19:35:11;;;;;;;;;;;17.70;99.90;;;;;;8368461;28;19953;-77
2022/07/07 19:39:13;;;;;;;;;;;17.70;99.90;;;;;;8371654;28;19925;-77
2022/07/07 19:43:14;;;;;;;;;;;17.70;99.90;;;;;;8365459;28;19959;-77
2022/07/07 19:47:18;;;;;;;;;;;17.70;99.90;;;;;;8373734;28;19948;-77
2022/07/07 19:51:20;;;;;;;;;;;17.70;99.90;;;;;;8364848;28;19931;-77
2022/07/07 19:55:22;;;;;;;;;;;17.70;99.90;;;;;;8368131;28;19928;-77
2022/07/07 19:59:23;;;;;;;;;;;17.70;99.90;;;;;;8367252;28;20411;-77
2022/07/07 20:03:29;;;;;;;;;;;17.70;99.90;;;;;;8366584;28;19944;-77
2022/07/07 20:07:31;;;;;;;;;;;17.60;99.90;;;;;;8362207;28;19986;-77
2022/07/07 20:11:32;;;;;;;;;;;17.60;99.90;;;;;;8369024;28;20293;-76
2022/07/07 20:15:40;;;;;;;;;;;17.60;99.90;;;;;;8371296;28;19925;-77
2022/07/07 20:20:00;;;;;;;;;;;17.60;99.90;;;;;;8386467;28;19925;-77
2022/07/07 20:24:01;;;;;;;;;;;17.50;99.90;;;;;;8370717;28;19932;-76
2022/07/07 20:28:03;;;;;;;;;;;17.50;99.90;;;;;;8349738;28;19928;-77
2022/07/07 20:32:05;;;;;;;;;;;17.50;99.90;;;;;;8350249;28;20081;-77
2022/07/07 20:36:07;;;;;;;;;;;17.40;99.90;;;;;;8364216;28;20038;-76
2022/07/07 20:40:09;;;;;;;;;;;17.40;99.90;;;;;;8363633;28;20329;-76
2022/07/07 20:44:15;;;;;;;;;;;17.40;99.90;;;;;;8360829;28;19977;-76
2022/07/07 20:48:17;;;;;;;;;;;17.40;99.90;;;;;;8363392;28;19929;-77
2022/07/07 20:52:39;;;;;;;;;;;17.40;99.90;;;;;;8363016;28;20355;-76
2022/07/07 20:56:40;;;;;;;;;;;17.40;99.90;;;;;;8374921;28;19935;-77
2022/07/07 21:00:42;;;;;;;;;;;17.40;99.90;;;;;;8373765;28;19981;-76
2022/07/07 21:04:44;;;;;;;;;;;17.30;99.90;;;;;;8383467;28;19924;-77
2022/07/07 21:08:46;;;;;;;;;;;17.30;99.90;;;;;;8385881;28;19936;-77
2022/07/07 21:12:47;;;;;;;;;;;17.30;99.90;;;;;;8379728;28;19929;-77
2022/07/07 21:16:49;;;;;;;;;;;17.30;99.90;;;;;;8387265;28;19928;-76
2022/07/07 21:20:51;;;;;;;;;;;17.20;99.90;;;;;;8380341;28;19958;-76
2022/07/07 21:24:52;;;;;;;;;;;17.30;99.90;;;;;;8387624;28;19932;-77
2022/07/07 21:28:54;;;;;;;;;;;17.20;99.90;;;;;;8399099;28;19924;-77
2022/07/07 21:32:56;;;;;;;;;;;17.20;99.90;;;;;;8385337;28;19924;-76
2022/07/07 21:36:58;;;;;;;;;;;17.10;99.90;;;;;;8364080;28;19928;-76
2022/07/07 21:41:00;;;;;;;;;;;17.10;99.90;;;;;;8377101;28;19924;-77
2022/07/07 21:45:02;;;;;;;;;;;17.10;99.90;;;;;;8370510;28;19940;-77
2022/07/07 21:49:03;;;;;;;;;;;17.00;99.90;;;;;;8386942;28;19924;-76
2022/07/07 21:53:05;;;;;;;;;;;17.00;99.90;;;;;;8378304;28;19929;-77
2022/07/07 21:57:06;;;;;;;;;;;17.00;99.90;;;;;;8408523;28;19924;-77
2022/07/07 22:01:08;;;;;;;;;;;17.00;99.90;;;;;;8374144;28;19932;-77
2022/07/07 22:09:48;;;;;;;;;;;17.00;99.90;;;;;;8318891;28;19932;-76
2022/07/07 22:13:49;;;;;;;;;;;17.00;99.90;;;;;;8385527;28;20924;-77
2022/07/07 22:17:51;;;;;;;;;;;17.00;99.90;;;;;;8376138;28;20316;-77
2022/07/07 22:21:53;;;;;;;;;;;17.00;99.90;;;;;;8389470;28;20011;-76
2022/07/07 22:25:58;;;;;;;;;;;17.00;99.90;;;;;;8379716;28;20364;-77
2022/07/07 22:29:59;;;;;;;;;;;17.00;99.90;;;;;;8368462;28;19924;-77
2022/07/07 22:34:02;;;;;;;;;;;17.00;99.90;;;;;;8382141;28;19935;-77
2022/07/07 22:38:03;;;;;;;;;;;17.00;99.90;;;;;;8391632;28;19926;-77
2022/07/07 22:42:05;;;;;;;;;;;17.00;99.90;;;;;;8383945;28;19924;-76
2022/07/07 22:46:07;;;;;;;;;;;17.00;99.90;;;;;;8372192;28;20399;-76
2022/07/07 22:50:09;;;;;;;;;;;17.00;99.90;;;;;;8372815;28;19931;-76
2022/07/07 22:54:11;;;;;;;;;;;17.00;99.90;;;;;;8382876;28;19951;-77
2022/07/07 22:58:12;;;;;;;;;;;17.00;99.90;;;;;;8382846;28;19931;-76
2022/07/07 23:02:14;;;;;;;;;;;16.90;99.90;;;;;;8378616;28;19925;-77
2022/07/07 23:06:16;;;;;;;;;;;16.90;99.90;;;;;;8380327;28;19947;-77
2022/07/07 23:10:17;;;;;;;;;;;16.80;99.90;;;;;;8386502;28;20252;-76
2022/07/07 23:14:19;;;;;;;;;;;16.80;99.90;;;;;;8371438;28;19929;-77
2022/07/07 23:18:21;;;;;;;;;;;16.80;99.90;;;;;;8382901;28;19931;-77
2022/07/07 23:22:22;;;;;;;;;;;16.70;99.90;;;;;;8375561;28;19964;-77
2022/07/07 23:26:24;;;;;;;;;;;16.70;99.90;;;;;;8377930;28;19933;-77
2022/07/07 23:30:26;;;;;;;;;;;16.70;99.90;;;;;;8385524;28;19931;-77
2022/07/07 23:34:28;;;;;;;;;;;16.60;99.90;;;;;;8383122;28;19928;-76